sensor_id;sensor_type;location;lat;lon;timestamp;temperature;humidity
23379;DHT22;11862;46.070;13.222;2022-11-14T00:00:25;11.60;99.90
23379;DHT22;11862;46.070;13.222;2022-11-14T00:02:51;11.60;99.90
23379;DHT22;11862;46.070;13.222;2022-11-14T00:05:17;11.60;99.90
23379;DHT22;11862;46.070;13.222;2022-11-14T00:07:43;11.60;99.90
23379;DHT22;11862;46.070;13.222;2022-11-14T00:10:10;11.70;99.90
23379;DHT22;11862;46.070;13.222;2022-11-14T00:12:36;11.70;99.90
23379;DHT22;11862;46.070;13.222;2022-11-14T00:15:02;11.60;99.90
23379;DHT22;11862;46.070;13.222;2022-11-14T00:17:31;11.70;99.90
23379;DHT22;11862;46.070;13.222;2022-11-14T00:19:57;11.70;99.90
23379;DHT22;11862;46.070;13.222;2022-11-14T00:22:23;11.70;99.90
23379;DHT22;11862;46.070;13.222;2022-11-14T00:24:48;11.70;99.90
23379;DHT22;11862;46.070;13.222;2022-11-14T00:27:14;11.60;99.90
23379;DHT22;11862;46.070;13.222;2022-11-14T00:29:40;11.60;99.90
23379;DHT22;11862;46.070;13.222;2022-11-14T00:32:06;11.60;99.90
23379;DHT22;11862;46.070;13.222;2022-11-14T00:34:33;11.60;99.90
23379;DHT22;11862;46.070;13.222;2022-11-14T00:36:59;11.60;99.90
23379;DHT22;11862;46.070;13.222;2022-11-14T00:39:25;11.70;99.90
23379;DHT22;11862;46.070;13.222;2022-11-14T00:41:51;11.70;99.90
23379;DHT22;11862;46.070;13.222;2022-11-14T00:44:17;11.70;99.90
23379;DHT22;11862;46.070;13.222;2022-11-14T00:46:43;11.80;99.90
23379;DHT22;11862;46.070;13.222;2022-11-14T00:49:09;11.80;99.90
23379;DHT22;11862;46.070;13.222;2022-11-14T00:51:35;11.80;99.90
23379;DHT22;11862;46.070;13.222;2022-11-14T00:54:01;11.70;99.90
23379;DHT22;11862;46.070;13.222;2022-11-14T00:56:28;11.70;99.90
23379;DHT22;11862;46.070;13.222;2022-11-14T00:58:54;11.80;99.90
23379;DHT22;11862;46.070;13.222;2022-11-14T01:01:20;11.70;99.90
23379;DHT22;11862;46.070;13.222;2022-11-14T01:03:50;11.70;99.90
23379;DHT22;11862;46.070;13.222;2022-11-14T01:06:17;11.80;99.90
23379;DHT22;11862;46.070;13.222;2022-11-14T01:08:48;11.80;99.90
23379;DHT22;11862;46.070;13.222;2022-11-14T01:11:17;11.80;99.90
23379;DHT22;11862;46.070;13.222;2022-11-14T01:13:44;11.90;99.90
23379;DHT22;11862;46.070;13.222;2022-11-14T01:16:10;11.90;99.90
23379;DHT22;11862;46.070;13.222;2022-11-14T01:18:37;11.90;99.90
23379;DHT22;11862;46.070;13.222;2022-11-14T01:21:05;11.80;99.90
23379;DHT22;11862;46.070;13.222;2022-11-14T01:23:31;11.90;99.90
23379;DHT22;11862;46.070;13.222;2022-11-14T01:26:02;11.80;99.90
23379;DHT22;11862;46.070;13.222;2022-11-14T01:28:28;11.80;99.90
23379;DHT22;11862;46.070;13.222;2022-11-14T01:30:54;11.80;99.90
23379;DHT22;11862;46.070;13.222;2022-11-14T01:33:20;11.80;99.90
23379;DHT22;11862;46.070;13.222;2022-11-14T01:35:46;11.80;99.90
23379;DHT22;11862;46.070;13.222;2022-11-14T01:38:13;11.80;99.90
23379;DHT22;11862;46.070;13.222;2022-11-14T01:40:43;11.70;99.90
23379;DHT22;11862;46.070;13.222;2022-11-14T01:48:24;11.80;99.90
23379;DHT22;11862;46.070;13.222;2022-11-14T01:50:57;11.80;99.90
23379;DHT22;11862;46.070;13.222;2022-11-14T01:53:24;11.80;99.90
23379;DHT22;11862;46.070;13.222;2022-11-14T01:55:51;11.80;99.90
23379;DHT22;11862;46.070;13.222;2022-11-14T01:58:18;11.90;99.90
23379;DHT22;11862;46.070;13.222;2022-11-14T02:00:47;11.90;99.90
23379;DHT22;11862;46.070;13.222;2022-11-14T02:03:17;11.80;99.90
23379;DHT22;11862;46.070;13.222;2022-11-14T02:05:44;11.80;99.90
23379;DHT22;11862;46.070;13.222;2022-11-14T02:08:12;11.90;99.90
23379;DHT22;11862;46.070;13.222;2022-11-14T02:10:39;11.90;99.90
23379;DHT22;11862;46.070;13.222;2022-11-14T02:13:10;11.80;99.90
23379;DHT22;11862;46.070;13.222;2022-11-14T02:15:36;11.80;99.90
23379;DHT22;11862;46.070;13.222;2022-11-14T02:18:02;11.90;99.90
23379;DHT22;11862;46.070;13.222;2022-11-14T02:20:32;11.80;99.90
23379;DHT22;11862;46.070;13.222;2022-11-14T02:22:59;11.80;99.90
23379;DHT22;11862;46.070;13.222;2022-11-14T02:25:25;11.80;99.90
23379;DHT22;11862;46.070;13.222;2022-11-14T02:27:51;11.80;99.90
23379;DHT22;11862;46.070;13.222;2022-11-14T02:30:19;11.80;99.90
23379;DHT22;11862;46.070;13.222;2022-11-14T02:32:45;11.90;99.90
23379;DHT22;11862;46.070;13.222;2022-11-14T02:35:11;11.90;99.90
23379;DHT22;11862;46.070;13.222;2022-11-14T02:37:38;12.00;99.90
23379;DHT22;11862;46.070;13.222;2022-11-14T02:40:05;11.90;99.90
23379;DHT22;11862;46.070;13.222;2022-11-14T02:42:31;11.90;99.90
23379;DHT22;11862;46.070;13.222;2022-11-14T02:44:57;12.00;99.90
23379;DHT22;11862;46.070;13.222;2022-11-14T02:47:23;11.90;99.90
23379;DHT22;11862;46.070;13.222;2022-11-14T02:49:52;12.00;99.90
23379;DHT22;11862;46.070;13.222;2022-11-14T02:52:18;12.00;99.90
23379;DHT22;11862;46.070;13.222;2022-11-14T02:54:44;11.90;99.90
23379;DHT22;11862;46.070;13.222;2022-11-14T02:57:10;11.90;99.90
23379;DHT22;11862;46.070;13.222;2022-11-14T02:59:36;11.80;99.90
23379;DHT22;11862;46.070;13.222;2022-11-14T03:02:02;11.90;99.90
23379;DHT22;11862;46.070;13.222;2022-11-14T03:04:31;11.90;99.90
23379;DHT22;11862;46.070;13.222;2022-11-14T03:06:56;11.90;99.90
23379;DHT22;11862;46.070;13.222;2022-11-14T03:09:22;11.90;99.90
23379;DHT22;11862;46.070;13.222;2022-11-14T03:11:48;12.00;99.90
23379;DHT22;11862;46.070;13.222;2022-11-14T03:14:14;12.00;99.90
23379;DHT22;11862;46.070;13.222;2022-11-14T03:16:40;12.00;99.90
23379;DHT22;11862;46.070;13.222;2022-11-14T03:19:08;12.00;99.90
23379;DHT22;11862;46.070;13.222;2022-11-14T03:21:34;12.00;99.90
23379;DHT22;11862;46.070;13.222;2022-11-14T03:24:00;12.10;99.90
23379;DHT22;11862;46.070;13.222;2022-11-14T03:26:26;12.10;99.90
23379;DHT22;11862;46.070;13.222;2022-11-14T03:28:52;12.10;99.90
23379;DHT22;11862;46.070;13.222;2022-11-14T03:31:20;11.90;99.90
23379;DHT22;11862;46.070;13.222;2022-11-14T03:33:45;11.80;99.90
23379;DHT22;11862;46.070;13.222;2022-11-14T03:36:11;11.80;99.90
23379;DHT22;11862;46.070;13.222;2022-11-14T03:38:37;11.70;99.90
23379;DHT22;11862;46.070;13.222;2022-11-14T03:41:03;11.60;99.90
23379;DHT22;11862;46.070;13.222;2022-11-14T03:43:32;11.70;99.90
23379;DHT22;11862;46.070;13.222;2022-11-14T03:45:59;11.60;99.90
23379;DHT22;11862;46.070;13.222;2022-11-14T03:48:26;11.60;99.90
23379;DHT22;11862;46.070;13.222;2022-11-14T03:50:52;11.60;99.90
23379;DHT22;11862;46.070;13.222;2022-11-14T03:53:19;11.50;99.90
23379;DHT22;11862;46.070;13.222;2022-11-14T03:55:45;11.50;99.90
23379;DHT22;11862;46.070;13.222;2022-11-14T03:58:11;11.60;99.90
23379;DHT22;11862;46.070;13.222;2022-11-14T04:00:37;11.50;99.90
23379;DHT22;11862;46.070;13.222;2022-11-14T04:03:03;11.50;99.90
23379;DHT22;11862;46.070;13.222;2022-11-14T04:05:29;11.40;99.90
23379;DHT22;11862;46.070;13.222;2022-11-14T04:07:55;11.50;99.90
23379;DHT22;11862;46.070;13.222;2022-11-14T04:10:21;11.40;99.90
23379;DHT22;11862;46.070;13.222;2022-11-14T04:12:48;11.40;99.90
23379;DHT22;11862;46.070;13.222;2022-11-14T04:15:15;11.50;99.90
23379;DHT22;11862;46.070;13.222;2022-11-14T04:17:40;11.40;99.90
23379;DHT22;11862;46.070;13.222;2022-11-14T04:20:09;11.40;99.90
23379;DHT22;11862;46.070;13.222;2022-11-14T04:22:35;11.40;99.90
23379;DHT22;11862;46.070;13.222;2022-11-14T04:25:05;11.40;99.90
23379;DHT22;11862;46.070;13.222;2022-11-14T04:27:31;11.40;99.90
23379;DHT22;11862;46.070;13.222;2022-11-14T04:29:57;11.40;99.90
23379;DHT22;11862;46.070;13.222;2022-11-14T04:32:22;11.40;99.90
23379;DHT22;11862;46.070;13.222;2022-11-14T04:34:48;11.40;99.90
23379;DHT22;11862;46.070;13.222;2022-11-14T04:37:14;11.40;99.90
23379;DHT22;11862;46.070;13.222;2022-11-14T04:39:40;11.40;99.90
23379;DHT22;11862;46.070;13.222;2022-11-14T04:42:06;11.40;99.90
23379;DHT22;11862;46.070;13.222;2022-11-14T04:44:32;11.50;99.90
23379;DHT22;11862;46.070;13.222;2022-11-14T04:46:58;11.50;99.90
23379;DHT22;11862;46.070;13.222;2022-11-14T04:49:26;11.40;99.90
23379;DHT22;11862;46.070;13.222;2022-11-14T04:51:56;11.50;99.90
23379;DHT22;11862;46.070;13.222;2022-11-14T04:54:22;11.40;99.90
23379;DHT22;11862;46.070;13.222;2022-11-14T04:56:48;11.40;99.90
23379;DHT22;11862;46.070;13.222;2022-11-14T04:59:16;11.30;99.90
23379;DHT22;11862;46.070;13.222;2022-11-14T05:01:42;11.30;99.90
23379;DHT22;11862;46.070;13.222;2022-11-14T05:04:10;11.30;99.90
23379;DHT22;11862;46.070;13.222;2022-11-14T05:06:36;11.30;99.90
23379;DHT22;11862;46.070;13.222;2022-11-14T05:09:02;11.20;99.90
23379;DHT22;11862;46.070;13.222;2022-11-14T05:11:28;11.30;99.90
23379;DHT22;11862;46.070;13.222;2022-11-14T05:13:54;11.30;99.90
23379;DHT22;11862;46.070;13.222;2022-11-14T05:16:20;11.40;99.90
23379;DHT22;11862;46.070;13.222;2022-11-14T05:18:46;11.30;99.90
23379;DHT22;11862;46.070;13.222;2022-11-14T05:21:13;11.30;99.90
23379;DHT22;11862;46.070;13.222;2022-11-14T05:23:39;11.30;99.90
23379;DHT22;11862;46.070;13.222;2022-11-14T05:26:10;11.40;99.90
23379;DHT22;11862;46.070;13.222;2022-11-14T05:28:36;11.30;99.90
23379;DHT22;11862;46.070;13.222;2022-11-14T05:31:05;11.30;99.90
23379;DHT22;11862;46.070;13.222;2022-11-14T05:33:32;11.20;99.90
23379;DHT22;11862;46.070;13.222;2022-11-14T05:36:06;11.30;99.90
23379;DHT22;11862;46.070;13.222;2022-11-14T05:38:33;11.40;99.90
23379;DHT22;11862;46.070;13.222;2022-11-14T05:41:00;11.40;99.90
23379;DHT22;11862;46.070;13.222;2022-11-14T05:43:29;11.30;99.90
23379;DHT22;11862;46.070;13.222;2022-11-14T05:46:04;11.30;99.90
23379;DHT22;11862;46.070;13.222;2022-11-14T05:48:30;11.30;99.90
23379;DHT22;11862;46.070;13.222;2022-11-14T05:50:57;11.30;99.90
23379;DHT22;11862;46.070;13.222;2022-11-14T05:53:24;11.30;99.90
23379;DHT22;11862;46.070;13.222;2022-11-14T05:55:50;11.30;99.90
23379;DHT22;11862;46.070;13.222;2022-11-14T05:58:16;11.30;99.90
23379;DHT22;11862;46.070;13.222;2022-11-14T06:00:42;11.30;99.90
23379;DHT22;11862;46.070;13.222;2022-11-14T06:03:08;11.40;99.90
23379;DHT22;11862;46.070;13.222;2022-11-14T06:05:35;11.40;99.90
23379;DHT22;11862;46.070;13.222;2022-11-14T06:08:02;11.30;99.90
23379;DHT22;11862;46.070;13.222;2022-11-14T06:10:28;11.30;99.90
23379;DHT22;11862;46.070;13.222;2022-11-14T06:12:54;11.30;99.90
23379;DHT22;11862;46.070;13.222;2022-11-14T06:15:20;11.40;99.90
23379;DHT22;11862;46.070;13.222;2022-11-14T06:17:46;11.40;99.90
23379;DHT22;11862;46.070;13.222;2022-11-14T06:20:15;11.50;99.90
23379;DHT22;11862;46.070;13.222;2022-11-14T06:22:44;11.50;99.90
23379;DHT22;11862;46.070;13.222;2022-11-14T06:25:10;11.60;99.90
23379;DHT22;11862;46.070;13.222;2022-11-14T06:27:36;11.60;99.90
23379;DHT22;11862;46.070;13.222;2022-11-14T06:30:03;11.70;99.90
23379;DHT22;11862;46.070;13.222;2022-11-14T06:32:29;11.70;99.90
23379;DHT22;11862;46.070;13.222;2022-11-14T06:34:55;11.80;99.90
23379;DHT22;11862;46.070;13.222;2022-11-14T06:37:21;11.90;99.90
23379;DHT22;11862;46.070;13.222;2022-11-14T06:39:49;12.00;99.90
23379;DHT22;11862;46.070;13.222;2022-11-14T06:42:17;12.10;99.90
23379;DHT22;11862;46.070;13.222;2022-11-14T06:44:53;12.10;99.90
23379;DHT22;11862;46.070;13.222;2022-11-14T06:47:26;12.20;99.90
23379;DHT22;11862;46.070;13.222;2022-11-14T06:50:35;12.30;99.90
23379;DHT22;11862;46.070;13.222;2022-11-14T06:53:16;12.40;99.90
23379;DHT22;11862;46.070;13.222;2022-11-14T06:56:38;12.40;99.90
23379;DHT22;11862;46.070;13.222;2022-11-14T06:59:14;12.40;99.90
23379;DHT22;11862;46.070;13.222;2022-11-14T07:01:52;12.50;99.90
23379;DHT22;11862;46.070;13.222;2022-11-14T07:04:34;12.50;99.90
23379;DHT22;11862;46.070;13.222;2022-11-14T07:07:12;12.50;99.90
23379;DHT22;11862;46.070;13.222;2022-11-14T07:10:08;12.50;99.90
23379;DHT22;11862;46.070;13.222;2022-11-14T07:12:47;12.40;99.90
23379;DHT22;11862;46.070;13.222;2022-11-14T07:15:19;12.30;99.90
23379;DHT22;11862;46.070;13.222;2022-11-14T07:17:50;12.10;99.90
23379;DHT22;11862;46.070;13.222;2022-11-14T07:20:22;12.10;99.90
23379;DHT22;11862;46.070;13.222;2022-11-14T07:22:49;12.10;99.90
23379;DHT22;11862;46.070;13.222;2022-11-14T07:25:18;12.20;99.90
23379;DHT22;11862;46.070;13.222;2022-11-14T07:27:50;12.30;99.90
23379;DHT22;11862;46.070;13.222;2022-11-14T07:30:22;12.30;99.90
23379;DHT22;11862;46.070;13.222;2022-11-14T07:33:01;12.30;99.90
23379;DHT22;11862;46.070;13.222;2022-11-14T07:35:31;12.30;99.90
23379;DHT22;11862;46.070;13.222;2022-11-14T07:38:06;12.40;99.90
23379;DHT22;11862;46.070;13.222;2022-11-14T07:40:33;12.50;99.90
23379;DHT22;11862;46.070;13.222;2022-11-14T07:43:00;12.50;99.90
23379;DHT22;11862;46.070;13.222;2022-11-14T07:45:36;12.60;99.90
23379;DHT22;11862;46.070;13.222;2022-11-14T07:48:27;12.70;99.90
23379;DHT22;11862;46.070;13.222;2022-11-14T07:51:04;12.70;99.90
23379;DHT22;11862;46.070;13.222;2022-11-14T07:53:31;12.90;99.90
23379;DHT22;11862;46.070;13.222;2022-11-14T07:56:05;12.90;99.90
23379;DHT22;11862;46.070;13.222;2022-11-14T07:58:38;13.00;99.90
23379;DHT22;11862;46.070;13.222;2022-11-14T08:01:10;13.00;99.90
23379;DHT22;11862;46.070;13.222;2022-11-14T08:03:40;12.90;99.90
23379;DHT22;11862;46.070;13.222;2022-11-14T08:06:19;12.80;99.90
23379;DHT22;11862;46.070;13.222;2022-11-14T08:08:49;12.70;99.90
23379;DHT22;11862;46.070;13.222;2022-11-14T08:11:18;12.70;99.90
23379;DHT22;11862;46.070;13.222;2022-11-14T08:16:48;12.50;99.90
23379;DHT22;11862;46.070;13.222;2022-11-14T08:19:15;12.50;99.90
23379;DHT22;11862;46.070;13.222;2022-11-14T08:21:52;12.40;99.90
23379;DHT22;11862;46.070;13.222;2022-11-14T08:24:21;12.40;99.90
23379;DHT22;11862;46.070;13.222;2022-11-14T08:26:49;12.40;99.90
23379;DHT22;11862;46.070;13.222;2022-11-14T08:29:17;12.50;99.90
23379;DHT22;11862;46.070;13.222;2022-11-14T08:31:53;12.70;99.90
23379;DHT22;11862;46.070;13.222;2022-11-14T08:34:33;12.60;99.90
23379;DHT22;11862;46.070;13.222;2022-11-14T08:37:07;12.60;99.90
23379;DHT22;11862;46.070;13.222;2022-11-14T08:39:38;12.50;99.90
23379;DHT22;11862;46.070;13.222;2022-11-14T08:42:10;12.40;99.90
23379;DHT22;11862;46.070;13.222;2022-11-14T08:44:43;12.40;99.90
23379;DHT22;11862;46.070;13.222;2022-11-14T08:47:10;12.50;99.90
23379;DHT22;11862;46.070;13.222;2022-11-14T08:49:50;12.40;99.90
23379;DHT22;11862;46.070;13.222;2022-11-14T08:52:27;12.40;99.90
23379;DHT22;11862;46.070;13.222;2022-11-14T08:54:58;12.50;99.90
23379;DHT22;11862;46.070;13.222;2022-11-14T08:57:38;12.50;99.90
23379;DHT22;11862;46.070;13.222;2022-11-14T09:00:05;12.50;99.90
23379;DHT22;11862;46.070;13.222;2022-11-14T09:02:38;12.50;99.90
23379;DHT22;11862;46.070;13.222;2022-11-14T09:05:14;12.50;99.90
23379;DHT22;11862;46.070;13.222;2022-11-14T09:07:48;12.40;99.90
23379;DHT22;11862;46.070;13.222;2022-11-14T09:10:36;12.40;99.90
23379;DHT22;11862;46.070;13.222;2022-11-14T09:13:25;12.70;99.90
23379;DHT22;11862;46.070;13.222;2022-11-14T09:15:59;12.80;99.90
23379;DHT22;11862;46.070;13.222;2022-11-14T09:18:26;12.70;99.90
23379;DHT22;11862;46.070;13.222;2022-11-14T09:20:59;12.80;99.90
23379;DHT22;11862;46.070;13.222;2022-11-14T09:23:33;12.70;99.90
23379;DHT22;11862;46.070;13.222;2022-11-14T09:26:07;12.70;99.90
23379;DHT22;11862;46.070;13.222;2022-11-14T09:28:40;12.50;99.90
23379;DHT22;11862;46.070;13.222;2022-11-14T09:31:13;12.60;99.90
23379;DHT22;11862;46.070;13.222;2022-11-14T09:33:43;12.60;99.90
23379;DHT22;11862;46.070;13.222;2022-11-14T09:36:29;12.70;99.90
23379;DHT22;11862;46.070;13.222;2022-11-14T09:39:04;12.70;99.90
23379;DHT22;11862;46.070;13.222;2022-11-14T09:41:51;12.70;99.90
23379;DHT22;11862;46.070;13.222;2022-11-14T09:44:40;12.80;99.90
23379;DHT22;11862;46.070;13.222;2022-11-14T09:47:18;12.70;99.90
23379;DHT22;11862;46.070;13.222;2022-11-14T09:49:52;12.80;99.90
23379;DHT22;11862;46.070;13.222;2022-11-14T09:56:20;13.00;99.90
23379;DHT22;11862;46.070;13.222;2022-11-14T09:58:27;13.10;99.90
23379;DHT22;11862;46.070;13.222;2022-11-14T10:19:08;13.40;99.90
23379;DHT22;11862;46.070;13.222;2022-11-14T10:27:15;13.60;99.90
23379;DHT22;11862;46.070;13.222;2022-11-14T10:35:23;13.60;99.90
23379;DHT22;11862;46.070;13.222;2022-11-14T10:38:06;13.60;99.90
23379;DHT22;11862;46.070;13.222;2022-11-14T10:40:54;13.70;99.90
23379;DHT22;11862;46.070;13.222;2022-11-14T10:43:48;13.70;99.90
23379;DHT22;11862;46.070;13.222;2022-11-14T10:46:22;13.80;99.90
23379;DHT22;11862;46.070;13.222;2022-11-14T10:48:55;13.80;99.90
23379;DHT22;11862;46.070;13.222;2022-11-14T10:51:37;13.70;99.90
23379;DHT22;11862;46.070;13.222;2022-11-14T10:54:35;13.70;99.90
23379;DHT22;11862;46.070;13.222;2022-11-14T10:57:19;13.70;99.90
23379;DHT22;11862;46.070;13.222;2022-11-14T10:59:55;13.60;99.90
23379;DHT22;11862;46.070;13.222;2022-11-14T11:03:04;13.70;99.90
23379;DHT22;11862;46.070;13.222;2022-11-14T11:06:23;13.70;99.90
23379;DHT22;11862;46.070;13.222;2022-11-14T11:09:12;13.90;99.90
23379;DHT22;11862;46.070;13.222;2022-11-14T11:12:00;14.00;99.90
23379;DHT22;11862;46.070;13.222;2022-11-14T11:14:30;14.10;99.90
23379;DHT22;11862;46.070;13.222;2022-11-14T11:17:14;14.10;99.90
23379;DHT22;11862;46.070;13.222;2022-11-14T11:19:46;14.20;99.90
23379;DHT22;11862;46.070;13.222;2022-11-14T11:22:37;14.40;99.90
23379;DHT22;11862;46.070;13.222;2022-11-14T11:25:26;14.50;99.90
23379;DHT22;11862;46.070;13.222;2022-11-14T11:28:12;14.50;99.90
23379;DHT22;11862;46.070;13.222;2022-11-14T11:31:08;14.70;99.90
23379;DHT22;11862;46.070;13.222;2022-11-14T11:33:55;15.00;99.90
23379;DHT22;11862;46.070;13.222;2022-11-14T11:36:31;15.20;99.90
23379;DHT22;11862;46.070;13.222;2022-11-14T11:39:21;15.30;99.90
23379;DHT22;11862;46.070;13.222;2022-11-14T11:42:05;15.30;99.90
23379;DHT22;11862;46.070;13.222;2022-11-14T11:44:42;15.40;99.90
23379;DHT22;11862;46.070;13.222;2022-11-14T11:47:22;15.50;99.90
23379;DHT22;11862;46.070;13.222;2022-11-14T11:49:55;15.60;99.90
23379;DHT22;11862;46.070;13.222;2022-11-14T11:58:49;15.60;99.90
23379;DHT22;11862;46.070;13.222;2022-11-14T12:10:56;15.80;99.90
23379;DHT22;11862;46.070;13.222;2022-11-14T12:22:54;15.90;99.90
23379;DHT22;11862;46.070;13.222;2022-11-14T12:26:12;16.00;99.90
23379;DHT22;11862;46.070;13.222;2022-11-14T12:28:54;16.00;99.90
23379;DHT22;11862;46.070;13.222;2022-11-14T12:31:26;16.00;99.90
23379;DHT22;11862;46.070;13.222;2022-11-14T12:37:32;15.90;99.90
23379;DHT22;11862;46.070;13.222;2022-11-14T12:40:04;15.60;99.90
23379;DHT22;11862;46.070;13.222;2022-11-14T12:42:31;15.40;99.90
23379;DHT22;11862;46.070;13.222;2022-11-14T12:44:57;15.30;99.90
23379;DHT22;11862;46.070;13.222;2022-11-14T12:47:27;15.30;99.90
23379;DHT22;11862;46.070;13.222;2022-11-14T12:58:10;15.50;99.90
23379;DHT22;11862;46.070;13.222;2022-11-14T13:06:05;15.40;99.90
23379;DHT22;11862;46.070;13.222;2022-11-14T13:11:40;15.40;99.90
23379;DHT22;11862;46.070;13.222;2022-11-14T13:14:26;15.50;99.90
23379;DHT22;11862;46.070;13.222;2022-11-14T13:23:04;15.30;99.90
23379;DHT22;11862;46.070;13.222;2022-11-14T13:25:30;15.30;99.90
23379;DHT22;11862;46.070;13.222;2022-11-14T13:31:22;15.10;99.90
23379;DHT22;11862;46.070;13.222;2022-11-14T13:33:54;15.00;99.90
23379;DHT22;11862;46.070;13.222;2022-11-14T13:36:53;14.90;99.90
23379;DHT22;11862;46.070;13.222;2022-11-14T13:39:44;14.90;99.90
23379;DHT22;11862;46.070;13.222;2022-11-14T13:51:09;14.60;99.90
23379;DHT22;11862;46.070;13.222;2022-11-14T13:53:38;14.50;99.90
23379;DHT22;11862;46.070;13.222;2022-11-14T13:56:21;14.50;99.90
23379;DHT22;11862;46.070;13.222;2022-11-14T14:06:55;14.40;99.90
23379;DHT22;11862;46.070;13.222;2022-11-14T14:12:37;14.40;99.90
23379;DHT22;11862;46.070;13.222;2022-11-14T14:26:49;14.30;99.90
23379;DHT22;11862;46.070;13.222;2022-11-14T14:31:43;14.50;99.90
23379;DHT22;11862;46.070;13.222;2022-11-14T14:36:51;14.50;99.90
23379;DHT22;11862;46.070;13.222;2022-11-14T14:39:19;14.60;99.90
23379;DHT22;11862;46.070;13.222;2022-11-14T14:41:47;14.50;99.90
23379;DHT22;11862;46.070;13.222;2022-11-14T14:44:22;14.40;99.90
23379;DHT22;11862;46.070;13.222;2022-11-14T14:46:50;14.30;99.90
23379;DHT22;11862;46.070;13.222;2022-11-14T14:49:30;14.20;99.90
23379;DHT22;11862;46.070;13.222;2022-11-14T14:51:57;14.20;99.90
23379;DHT22;11862;46.070;13.222;2022-11-14T14:54:25;14.20;99.90
23379;DHT22;11862;46.070;13.222;2022-11-14T14:56:56;14.20;99.90
23379;DHT22;11862;46.070;13.222;2022-11-14T14:59:29;14.30;99.90
23379;DHT22;11862;46.070;13.222;2022-11-14T15:01:56;14.30;99.90
23379;DHT22;11862;46.070;13.222;2022-11-14T15:04:30;14.20;99.90
23379;DHT22;11862;46.070;13.222;2022-11-14T15:06:57;14.20;99.90
23379;DHT22;11862;46.070;13.222;2022-11-14T15:09:27;14.20;99.90
23379;DHT22;11862;46.070;13.222;2022-11-14T15:11:59;14.30;99.90
23379;DHT22;11862;46.070;13.222;2022-11-14T15:14:29;14.20;99.90
23379;DHT22;11862;46.070;13.222;2022-11-14T15:16:57;14.10;99.90
23379;DHT22;11862;46.070;13.222;2022-11-14T15:19:27;14.10;99.90
23379;DHT22;11862;46.070;13.222;2022-11-14T15:22:01;14.10;99.90
23379;DHT22;11862;46.070;13.222;2022-11-14T15:24:31;14.10;99.90
23379;DHT22;11862;46.070;13.222;2022-11-14T15:26:57;14.10;99.90
23379;DHT22;11862;46.070;13.222;2022-11-14T15:29:25;14.10;99.90
23379;DHT22;11862;46.070;13.222;2022-11-14T15:32:01;14.10;99.90
23379;DHT22;11862;46.070;13.222;2022-11-14T15:34:36;14.00;99.90
23379;DHT22;11862;46.070;13.222;2022-11-14T15:39:40;13.90;99.90
23379;DHT22;11862;46.070;13.222;2022-11-14T15:42:17;13.90;99.90
23379;DHT22;11862;46.070;13.222;2022-11-14T15:44:44;13.90;99.90
23379;DHT22;11862;46.070;13.222;2022-11-14T15:47:17;13.90;99.90
23379;DHT22;11862;46.070;13.222;2022-11-14T15:52:38;13.80;99.90
23379;DHT22;11862;46.070;13.222;2022-11-14T15:55:15;13.90;99.90
23379;DHT22;11862;46.070;13.222;2022-11-14T15:57:42;13.80;99.90
23379;DHT22;11862;46.070;13.222;2022-11-14T16:00:12;13.80;99.90
23379;DHT22;11862;46.070;13.222;2022-11-14T16:02:57;13.80;99.90
23379;DHT22;11862;46.070;13.222;2022-11-14T16:05:28;13.70;99.90
23379;DHT22;11862;46.070;13.222;2022-11-14T16:07:55;13.60;99.90
23379;DHT22;11862;46.070;13.222;2022-11-14T16:10:26;13.70;99.90
23379;DHT22;11862;46.070;13.222;2022-11-14T16:12:52;13.60;99.90
23379;DHT22;11862;46.070;13.222;2022-11-14T16:15:19;13.60;99.90
23379;DHT22;11862;46.070;13.222;2022-11-14T16:17:47;13.70;99.90
23379;DHT22;11862;46.070;13.222;2022-11-14T16:20:18;13.70;99.90
23379;DHT22;11862;46.070;13.222;2022-11-14T16:22:48;13.60;99.90
23379;DHT22;11862;46.070;13.222;2022-11-14T16:25:27;13.70;99.90
23379;DHT22;11862;46.070;13.222;2022-11-14T16:27:56;13.70;99.90
23379;DHT22;11862;46.070;13.222;2022-11-14T16:30:24;13.60;99.90
23379;DHT22;11862;46.070;13.222;2022-11-14T16:32:50;13.50;99.90
23379;DHT22;11862;46.070;13.222;2022-11-14T16:35:19;13.40;99.90
23379;DHT22;11862;46.070;13.222;2022-11-14T16:37:45;13.40;99.90
23379;DHT22;11862;46.070;13.222;2022-11-14T16:40:15;13.40;99.90
23379;DHT22;11862;46.070;13.222;2022-11-14T16:42:41;13.30;99.90
23379;DHT22;11862;46.070;13.222;2022-11-14T16:45:10;13.30;99.90
23379;DHT22;11862;46.070;13.222;2022-11-14T16:47:38;13.30;99.90
23379;DHT22;11862;46.070;13.222;2022-11-14T16:50:06;13.30;99.90
23379;DHT22;11862;46.070;13.222;2022-11-14T16:52:34;13.30;99.90
23379;DHT22;11862;46.070;13.222;2022-11-14T16:55:02;13.30;99.90
23379;DHT22;11862;46.070;13.222;2022-11-14T16:57:28;13.30;99.90
23379;DHT22;11862;46.070;13.222;2022-11-14T16:59:53;13.40;99.90
23379;DHT22;11862;46.070;13.222;2022-11-14T17:02:21;13.40;99.90
23379;DHT22;11862;46.070;13.222;2022-11-14T17:04:49;13.40;99.90
23379;DHT22;11862;46.070;13.222;2022-11-14T17:07:17;13.40;99.90
23379;DHT22;11862;46.070;13.222;2022-11-14T17:09:44;13.50;99.90
23379;DHT22;11862;46.070;13.222;2022-11-14T17:12:10;13.40;99.90
23379;DHT22;11862;46.070;13.222;2022-11-14T17:14:39;13.30;99.90
23379;DHT22;11862;46.070;13.222;2022-11-14T17:17:08;13.40;99.90
23379;DHT22;11862;46.070;13.222;2022-11-14T17:19:33;13.40;99.90
23379;DHT22;11862;46.070;13.222;2022-11-14T17:22:00;13.40;99.90
23379;DHT22;11862;46.070;13.222;2022-11-14T17:24:28;13.40;99.90
23379;DHT22;11862;46.070;13.222;2022-11-14T17:26:55;13.50;99.90
23379;DHT22;11862;46.070;13.222;2022-11-14T17:29:24;13.40;99.90
23379;DHT22;11862;46.070;13.222;2022-11-14T17:31:50;13.40;99.90
23379;DHT22;11862;46.070;13.222;2022-11-14T17:34:20;13.30;99.90
23379;DHT22;11862;46.070;13.222;2022-11-14T17:36:47;13.20;99.90
23379;DHT22;11862;46.070;13.222;2022-11-14T17:39:16;13.20;99.90
23379;DHT22;11862;46.070;13.222;2022-11-14T17:41:43;13.20;99.90
23379;DHT22;11862;46.070;13.222;2022-11-14T17:44:12;13.20;99.90
23379;DHT22;11862;46.070;13.222;2022-11-14T17:46:47;13.20;99.90
23379;DHT22;11862;46.070;13.222;2022-11-14T17:49:13;13.20;99.90
23379;DHT22;11862;46.070;13.222;2022-11-14T17:51:39;13.20;99.90
23379;DHT22;11862;46.070;13.222;2022-11-14T17:54:05;13.20;99.90
23379;DHT22;11862;46.070;13.222;2022-11-14T17:56:31;13.10;99.90